sensor_id;sensor_type;location;lat;lon;timestamp;P1;durP1;ratioP1;P2;durP2;ratioP2
18383;SDS011;9318;48.644;9.456;2022-08-19T00:00:37;29.80;;;19.95;;
18383;SDS011;9318;48.644;9.456;2022-08-19T00:03:04;31.17;;;20.67;;
18383;SDS011;9318;48.644;9.456;2022-08-19T00:05:33;31.75;;;20.77;;
18383;SDS011;9318;48.644;9.456;2022-08-19T00:08:00;29.33;;;19.45;;
18383;SDS011;9318;48.644;9.456;2022-08-19T00:10:28;31.13;;;20.90;;
18383;SDS011;9318;48.644;9.456;2022-08-19T00:12:55;30.95;;;20.08;;
18383;SDS011;9318;48.644;9.456;2022-08-19T00:15:22;30.38;;;21.45;;
18383;SDS011;9318;48.644;9.456;2022-08-19T00:17:51;33.20;;;21.38;;
18383;SDS011;9318;48.644;9.456;2022-08-19T00:20:19;30.00;;;20.40;;
18383;SDS011;9318;48.644;9.456;2022-08-19T00:22:48;31.65;;;21.85;;
18383;SDS011;9318;48.644;9.456;2022-08-19T00:25:16;30.58;;;20.85;;
18383;SDS011;9318;48.644;9.456;2022-08-19T00:27:43;33.58;;;21.67;;
18383;SDS011;9318;48.644;9.456;2022-08-19T00:30:11;33.20;;;22.35;;
18383;SDS011;9318;48.644;9.456;2022-08-19T00:32:38;33.05;;;21.88;;
18383;SDS011;9318;48.644;9.456;2022-08-19T00:35:08;32.00;;;21.08;;
18383;SDS011;9318;48.644;9.456;2022-08-19T00:37:36;32.90;;;20.70;;
18383;SDS011;9318;48.644;9.456;2022-08-19T00:40:06;30.67;;;20.65;;
18383;SDS011;9318;48.644;9.456;2022-08-19T00:42:34;31.15;;;20.23;;
18383;SDS011;9318;48.644;9.456;2022-08-19T00:45:02;32.22;;;20.98;;
18383;SDS011;9318;48.644;9.456;2022-08-19T00:47:37;31.77;;;21.40;;
18383;SDS011;9318;48.644;9.456;2022-08-19T00:50:05;33.45;;;21.88;;
18383;SDS011;9318;48.644;9.456;2022-08-19T00:52:37;33.45;;;21.70;;
18383;SDS011;9318;48.644;9.456;2022-08-19T00:55:11;35.00;;;22.52;;
18383;SDS011;9318;48.644;9.456;2022-08-19T00:57:43;33.17;;;21.95;;
18383;SDS011;9318;48.644;9.456;2022-08-19T01:00:15;36.70;;;23.00;;
18383;SDS011;9318;48.644;9.456;2022-08-19T01:02:44;33.78;;;22.33;;
18383;SDS011;9318;48.644;9.456;2022-08-19T01:05:14;34.92;;;22.90;;
18383;SDS011;9318;48.644;9.456;2022-08-19T01:07:46;33.70;;;21.98;;
18383;SDS011;9318;48.644;9.456;2022-08-19T01:10:16;35.20;;;21.90;;
18383;SDS011;9318;48.644;9.456;2022-08-19T01:12:46;35.00;;;23.08;;
18383;SDS011;9318;48.644;9.456;2022-08-19T01:15:16;35.85;;;22.70;;
18383;SDS011;9318;48.644;9.456;2022-08-19T01:17:46;33.38;;;21.70;;
18383;SDS011;9318;48.644;9.456;2022-08-19T01:20:17;31.92;;;21.65;;
18383;SDS011;9318;48.644;9.456;2022-08-19T01:22:48;32.35;;;21.13;;
18383;SDS011;9318;48.644;9.456;2022-08-19T01:25:17;32.17;;;20.55;;
18383;SDS011;9318;48.644;9.456;2022-08-19T01:27:48;32.65;;;21.02;;
18383;SDS011;9318;48.644;9.456;2022-08-19T01:30:17;34.38;;;22.60;;
18383;SDS011;9318;48.644;9.456;2022-08-19T01:32:47;34.45;;;22.08;;
18383;SDS011;9318;48.644;9.456;2022-08-19T01:35:15;35.20;;;21.90;;
18383;SDS011;9318;48.644;9.456;2022-08-19T01:37:48;33.38;;;20.27;;
18383;SDS011;9318;48.644;9.456;2022-08-19T01:40:18;34.28;;;22.17;;
18383;SDS011;9318;48.644;9.456;2022-08-19T01:42:47;37.03;;;22.40;;
18383;SDS011;9318;48.644;9.456;2022-08-19T01:45:15;35.35;;;22.15;;
18383;SDS011;9318;48.644;9.456;2022-08-19T01:47:42;31.85;;;21.10;;
18383;SDS011;9318;48.644;9.456;2022-08-19T01:50:10;34.92;;;22.20;;
18383;SDS011;9318;48.644;9.456;2022-08-19T01:52:40;32.90;;;21.73;;
18383;SDS011;9318;48.644;9.456;2022-08-19T01:55:11;34.65;;;21.98;;
18383;SDS011;9318;48.644;9.456;2022-08-19T01:57:40;34.38;;;21.70;;
18383;SDS011;9318;48.644;9.456;2022-08-19T02:00:12;34.40;;;21.15;;
18383;SDS011;9318;48.644;9.456;2022-08-19T02:02:41;34.90;;;21.00;;
18383;SDS011;9318;48.644;9.456;2022-08-19T02:05:09;33.83;;;22.38;;
18383;SDS011;9318;48.644;9.456;2022-08-19T02:07:39;33.08;;;22.02;;
18383;SDS011;9318;48.644;9.456;2022-08-19T02:10:08;32.40;;;20.40;;
18383;SDS011;9318;48.644;9.456;2022-08-19T02:12:39;32.88;;;21.00;;
18383;SDS011;9318;48.644;9.456;2022-08-19T02:15:07;33.47;;;20.98;;
18383;SDS011;9318;48.644;9.456;2022-08-19T02:17:35;30.67;;;19.88;;
18383;SDS011;9318;48.644;9.456;2022-08-19T02:20:02;35.10;;;22.10;;
18383;SDS011;9318;48.644;9.456;2022-08-19T02:22:31;32.15;;;20.67;;
18383;SDS011;9318;48.644;9.456;2022-08-19T02:24:59;33.25;;;20.55;;
18383;SDS011;9318;48.644;9.456;2022-08-19T02:27:28;30.90;;;19.63;;
18383;SDS011;9318;48.644;9.456;2022-08-19T02:29:56;35.55;;;21.95;;
18383;SDS011;9318;48.644;9.456;2022-08-19T02:32:23;33.40;;;21.77;;
18383;SDS011;9318;48.644;9.456;2022-08-19T02:34:50;30.20;;;19.60;;
18383;SDS011;9318;48.644;9.456;2022-08-19T02:37:17;32.97;;;21.25;;
18383;SDS011;9318;48.644;9.456;2022-08-19T02:40:02;28.70;;;18.00;;
18383;SDS011;9318;48.644;9.456;2022-08-19T02:42:32;33.40;;;20.90;;
18383;SDS011;9318;48.644;9.456;2022-08-19T02:44:59;28.25;;;18.20;;
18383;SDS011;9318;48.644;9.456;2022-08-19T02:47:26;34.58;;;20.02;;
18383;SDS011;9318;48.644;9.456;2022-08-19T02:49:53;32.13;;;20.13;;
18383;SDS011;9318;48.644;9.456;2022-08-19T02:52:20;27.75;;;18.08;;
18383;SDS011;9318;48.644;9.456;2022-08-19T02:54:48;30.83;;;19.25;;
18383;SDS011;9318;48.644;9.456;2022-08-19T02:57:15;29.65;;;18.27;;
18383;SDS011;9318;48.644;9.456;2022-08-19T02:59:44;31.23;;;19.77;;
18383;SDS011;9318;48.644;9.456;2022-08-19T03:02:11;31.33;;;19.27;;
18383;SDS011;9318;48.644;9.456;2022-08-19T03:04:38;35.10;;;21.48;;
18383;SDS011;9318;48.644;9.456;2022-08-19T03:07:06;33.60;;;20.75;;
18383;SDS011;9318;48.644;9.456;2022-08-19T03:09:36;32.55;;;20.40;;
18383;SDS011;9318;48.644;9.456;2022-08-19T03:12:03;31.10;;;19.25;;
18383;SDS011;9318;48.644;9.456;2022-08-19T03:14:31;30.48;;;19.45;;
18383;SDS011;9318;48.644;9.456;2022-08-19T03:17:00;33.05;;;20.55;;
18383;SDS011;9318;48.644;9.456;2022-08-19T03:19:29;26.83;;;17.67;;
18383;SDS011;9318;48.644;9.456;2022-08-19T03:21:57;30.08;;;18.95;;
18383;SDS011;9318;48.644;9.456;2022-08-19T03:24:24;28.88;;;18.23;;
18383;SDS011;9318;48.644;9.456;2022-08-19T03:26:52;31.33;;;18.75;;
18383;SDS011;9318;48.644;9.456;2022-08-19T03:29:22;29.30;;;18.40;;
18383;SDS011;9318;48.644;9.456;2022-08-19T03:31:51;32.55;;;19.80;;
18383;SDS011;9318;48.644;9.456;2022-08-19T03:34:22;31.55;;;19.98;;
18383;SDS011;9318;48.644;9.456;2022-08-19T03:36:51;33.88;;;20.25;;
18383;SDS011;9318;48.644;9.456;2022-08-19T03:39:19;31.70;;;18.63;;
18383;SDS011;9318;48.644;9.456;2022-08-19T03:41:48;28.25;;;17.90;;
18383;SDS011;9318;48.644;9.456;2022-08-19T03:44:17;35.75;;;21.08;;
18383;SDS011;9318;48.644;9.456;2022-08-19T03:46:46;33.45;;;20.65;;
18383;SDS011;9318;48.644;9.456;2022-08-19T03:49:14;35.88;;;19.85;;
18383;SDS011;9318;48.644;9.456;2022-08-19T03:51:43;34.70;;;20.92;;
18383;SDS011;9318;48.644;9.456;2022-08-19T03:54:13;31.58;;;18.95;;
18383;SDS011;9318;48.644;9.456;2022-08-19T03:56:42;34.35;;;19.98;;
18383;SDS011;9318;48.644;9.456;2022-08-19T03:59:12;36.15;;;21.70;;
18383;SDS011;9318;48.644;9.456;2022-08-19T04:01:41;33.20;;;19.63;;
18383;SDS011;9318;48.644;9.456;2022-08-19T04:04:08;28.20;;;17.60;;
18383;SDS011;9318;48.644;9.456;2022-08-19T04:06:36;31.20;;;18.65;;
18383;SDS011;9318;48.644;9.456;2022-08-19T04:09:07;30.23;;;17.52;;
18383;SDS011;9318;48.644;9.456;2022-08-19T04:11:36;29.40;;;17.90;;
18383;SDS011;9318;48.644;9.456;2022-08-19T04:14:07;33.70;;;20.20;;
18383;SDS011;9318;48.644;9.456;2022-08-19T04:16:35;32.92;;;19.88;;
18383;SDS011;9318;48.644;9.456;2022-08-19T04:19:02;33.65;;;20.58;;
18383;SDS011;9318;48.644;9.456;2022-08-19T04:21:30;33.35;;;20.08;;
18383;SDS011;9318;48.644;9.456;2022-08-19T04:23:58;34.40;;;20.83;;
18383;SDS011;9318;48.644;9.456;2022-08-19T04:26:28;35.13;;;21.00;;
18383;SDS011;9318;48.644;9.456;2022-08-19T04:28:57;34.95;;;20.83;;
18383;SDS011;9318;48.644;9.456;2022-08-19T04:31:25;33.53;;;20.58;;
18383;SDS011;9318;48.644;9.456;2022-08-19T04:33:55;36.22;;;21.10;;
18383;SDS011;9318;48.644;9.456;2022-08-19T04:36:24;33.25;;;20.90;;
18383;SDS011;9318;48.644;9.456;2022-08-19T04:38:54;35.35;;;20.75;;
18383;SDS011;9318;48.644;9.456;2022-08-19T04:41:23;30.83;;;18.33;;
18383;SDS011;9318;48.644;9.456;2022-08-19T04:44:09;33.90;;;20.33;;
18383;SDS011;9318;48.644;9.456;2022-08-19T04:46:37;35.85;;;21.98;;
18383;SDS011;9318;48.644;9.456;2022-08-19T04:49:05;37.53;;;21.13;;
18383;SDS011;9318;48.644;9.456;2022-08-19T04:51:33;33.72;;;20.15;;
18383;SDS011;9318;48.644;9.456;2022-08-19T04:54:02;33.00;;;20.02;;
18383;SDS011;9318;48.644;9.456;2022-08-19T04:56:30;37.13;;;21.45;;
18383;SDS011;9318;48.644;9.456;2022-08-19T04:58:57;32.17;;;20.10;;
18383;SDS011;9318;48.644;9.456;2022-08-19T05:01:30;34.45;;;19.23;;
18383;SDS011;9318;48.644;9.456;2022-08-19T05:03:59;34.65;;;19.98;;
18383;SDS011;9318;48.644;9.456;2022-08-19T05:06:27;30.65;;;18.00;;
18383;SDS011;9318;48.644;9.456;2022-08-19T05:08:58;28.02;;;16.65;;
18383;SDS011;9318;48.644;9.456;2022-08-19T05:11:28;31.77;;;18.08;;
18383;SDS011;9318;48.644;9.456;2022-08-19T05:13:56;39.22;;;22.95;;
18383;SDS011;9318;48.644;9.456;2022-08-19T05:16:25;34.20;;;20.25;;
18383;SDS011;9318;48.644;9.456;2022-08-19T05:18:54;35.83;;;22.13;;
18383;SDS011;9318;48.644;9.456;2022-08-19T05:21:39;38.00;;;22.80;;
18383;SDS011;9318;48.644;9.456;2022-08-19T05:24:25;37.20;;;22.25;;
18383;SDS011;9318;48.644;9.456;2022-08-19T05:26:53;30.83;;;18.17;;
18383;SDS011;9318;48.644;9.456;2022-08-19T05:29:24;38.38;;;21.65;;
18383;SDS011;9318;48.644;9.456;2022-08-19T05:31:53;29.70;;;17.55;;
18383;SDS011;9318;48.644;9.456;2022-08-19T05:34:23;35.60;;;20.98;;
18383;SDS011;9318;48.644;9.456;2022-08-19T05:36:51;38.05;;;22.10;;
18383;SDS011;9318;48.644;9.456;2022-08-19T05:39:21;37.10;;;21.98;;
18383;SDS011;9318;48.644;9.456;2022-08-19T05:41:51;38.22;;;22.65;;
18383;SDS011;9318;48.644;9.456;2022-08-19T05:44:22;33.53;;;19.38;;
18383;SDS011;9318;48.644;9.456;2022-08-19T05:46:50;35.47;;;20.25;;
18383;SDS011;9318;48.644;9.456;2022-08-19T05:49:19;33.20;;;19.92;;
18383;SDS011;9318;48.644;9.456;2022-08-19T05:51:49;37.97;;;22.42;;
18383;SDS011;9318;48.644;9.456;2022-08-19T05:54:17;37.97;;;22.67;;
18383;SDS011;9318;48.644;9.456;2022-08-19T05:56:45;37.65;;;22.77;;
18383;SDS011;9318;48.644;9.456;2022-08-19T05:59:14;36.83;;;22.00;;
18383;SDS011;9318;48.644;9.456;2022-08-19T06:01:43;40.97;;;23.45;;
18383;SDS011;9318;48.644;9.456;2022-08-19T06:04:15;42.15;;;24.58;;
18383;SDS011;9318;48.644;9.456;2022-08-19T06:06:44;37.40;;;22.92;;
18383;SDS011;9318;48.644;9.456;2022-08-19T06:09:13;39.85;;;23.42;;
18383;SDS011;9318;48.644;9.456;2022-08-19T06:11:41;40.22;;;23.88;;
18383;SDS011;9318;48.644;9.456;2022-08-19T06:14:12;40.90;;;23.08;;
18383;SDS011;9318;48.644;9.456;2022-08-19T06:16:42;38.30;;;22.58;;
18383;SDS011;9318;48.644;9.456;2022-08-19T06:19:11;38.55;;;23.25;;
18383;SDS011;9318;48.644;9.456;2022-08-19T06:21:41;38.42;;;22.25;;
18383;SDS011;9318;48.644;9.456;2022-08-19T06:24:10;31.80;;;19.33;;
18383;SDS011;9318;48.644;9.456;2022-08-19T06:26:42;36.88;;;21.92;;
18383;SDS011;9318;48.644;9.456;2022-08-19T06:29:11;39.92;;;22.85;;
18383;SDS011;9318;48.644;9.456;2022-08-19T06:31:41;37.50;;;23.10;;
18383;SDS011;9318;48.644;9.456;2022-08-19T06:34:10;36.63;;;22.25;;
18383;SDS011;9318;48.644;9.456;2022-08-19T06:36:40;35.35;;;21.10;;
18383;SDS011;9318;48.644;9.456;2022-08-19T06:39:09;36.92;;;22.48;;
18383;SDS011;9318;48.644;9.456;2022-08-19T06:41:38;31.90;;;19.80;;
18383;SDS011;9318;48.644;9.456;2022-08-19T06:44:11;38.20;;;22.67;;
18383;SDS011;9318;48.644;9.456;2022-08-19T06:46:39;41.40;;;25.38;;
18383;SDS011;9318;48.644;9.456;2022-08-19T06:49:08;43.38;;;24.85;;
18383;SDS011;9318;48.644;9.456;2022-08-19T06:51:38;42.33;;;25.38;;
18383;SDS011;9318;48.644;9.456;2022-08-19T06:54:07;41.13;;;23.58;;
18383;SDS011;9318;48.644;9.456;2022-08-19T06:56:34;43.13;;;24.75;;
18383;SDS011;9318;48.644;9.456;2022-08-19T06:59:04;41.42;;;24.08;;
18383;SDS011;9318;48.644;9.456;2022-08-19T07:01:34;43.40;;;24.98;;
18383;SDS011;9318;48.644;9.456;2022-08-19T07:04:03;40.55;;;24.77;;
18383;SDS011;9318;48.644;9.456;2022-08-19T07:06:31;41.00;;;23.40;;
18383;SDS011;9318;48.644;9.456;2022-08-19T07:08:59;44.28;;;26.20;;
18383;SDS011;9318;48.644;9.456;2022-08-19T07:11:26;44.63;;;25.52;;
18383;SDS011;9318;48.644;9.456;2022-08-19T07:13:53;43.67;;;26.42;;
18383;SDS011;9318;48.644;9.456;2022-08-19T07:16:22;47.10;;;26.63;;
18383;SDS011;9318;48.644;9.456;2022-08-19T07:18:50;45.22;;;27.52;;
18383;SDS011;9318;48.644;9.456;2022-08-19T07:21:18;45.70;;;26.92;;
18383;SDS011;9318;48.644;9.456;2022-08-19T07:23:47;35.72;;;21.67;;
18383;SDS011;9318;48.644;9.456;2022-08-19T07:26:16;37.60;;;22.92;;
18383;SDS011;9318;48.644;9.456;2022-08-19T07:28:46;43.67;;;27.23;;
18383;SDS011;9318;48.644;9.456;2022-08-19T07:31:16;35.15;;;21.92;;
18383;SDS011;9318;48.644;9.456;2022-08-19T07:33:46;39.05;;;23.73;;
18383;SDS011;9318;48.644;9.456;2022-08-19T07:36:16;44.17;;;27.20;;
18383;SDS011;9318;48.644;9.456;2022-08-19T07:38:45;46.33;;;27.70;;
18383;SDS011;9318;48.644;9.456;2022-08-19T07:41:16;44.53;;;28.17;;
18383;SDS011;9318;48.644;9.456;2022-08-19T07:43:44;39.30;;;24.02;;
18383;SDS011;9318;48.644;9.456;2022-08-19T07:46:12;41.08;;;25.20;;
18383;SDS011;9318;48.644;9.456;2022-08-19T07:48:40;40.85;;;24.95;;
18383;SDS011;9318;48.644;9.456;2022-08-19T07:51:10;44.50;;;26.77;;
18383;SDS011;9318;48.644;9.456;2022-08-19T07:53:38;39.75;;;23.83;;
18383;SDS011;9318;48.644;9.456;2022-08-19T07:56:05;47.75;;;27.35;;
18383;SDS011;9318;48.644;9.456;2022-08-19T07:58:33;44.05;;;26.63;;
18383;SDS011;9318;48.644;9.456;2022-08-19T08:01:03;44.50;;;26.95;;
18383;SDS011;9318;48.644;9.456;2022-08-19T08:03:31;44.75;;;27.77;;
18383;SDS011;9318;48.644;9.456;2022-08-19T08:06:18;43.88;;;27.10;;
18383;SDS011;9318;48.644;9.456;2022-08-19T08:09:03;45.95;;;27.83;;
18383;SDS011;9318;48.644;9.456;2022-08-19T08:11:37;46.22;;;26.70;;
18383;SDS011;9318;48.644;9.456;2022-08-19T08:14:04;46.38;;;26.58;;
18383;SDS011;9318;48.644;9.456;2022-08-19T08:16:33;45.00;;;27.48;;
18383;SDS011;9318;48.644;9.456;2022-08-19T08:19:03;42.40;;;24.85;;
18383;SDS011;9318;48.644;9.456;2022-08-19T08:21:32;46.67;;;28.45;;
18383;SDS011;9318;48.644;9.456;2022-08-19T08:24:00;43.15;;;26.20;;
18383;SDS011;9318;48.644;9.456;2022-08-19T08:26:27;39.65;;;24.02;;
18383;SDS011;9318;48.644;9.456;2022-08-19T08:28:54;39.50;;;24.70;;
18383;SDS011;9318;48.644;9.456;2022-08-19T08:31:22;45.60;;;27.60;;
18383;SDS011;9318;48.644;9.456;2022-08-19T08:33:49;44.28;;;26.65;;
18383;SDS011;9318;48.644;9.456;2022-08-19T08:36:16;45.33;;;28.30;;
18383;SDS011;9318;48.644;9.456;2022-08-19T08:38:45;42.30;;;25.33;;
18383;SDS011;9318;48.644;9.456;2022-08-19T08:41:16;41.55;;;25.13;;
18383;SDS011;9318;48.644;9.456;2022-08-19T08:43:47;44.65;;;26.80;;
18383;SDS011;9318;48.644;9.456;2022-08-19T08:46:19;39.47;;;24.40;;
18383;SDS011;9318;48.644;9.456;2022-08-19T08:48:53;41.95;;;26.13;;
18383;SDS011;9318;48.644;9.456;2022-08-19T08:51:25;47.15;;;28.27;;
18383;SDS011;9318;48.644;9.456;2022-08-19T08:53:56;50.75;;;29.52;;
18383;SDS011;9318;48.644;9.456;2022-08-19T08:56:24;45.20;;;27.83;;
18383;SDS011;9318;48.644;9.456;2022-08-19T08:58:58;45.95;;;28.98;;
18383;SDS011;9318;48.644;9.456;2022-08-19T09:01:28;48.13;;;29.42;;
18383;SDS011;9318;48.644;9.456;2022-08-19T09:03:56;48.47;;;28.77;;
18383;SDS011;9318;48.644;9.456;2022-08-19T09:06:25;49.95;;;30.42;;
18383;SDS011;9318;48.644;9.456;2022-08-19T09:09:01;48.47;;;29.95;;
18383;SDS011;9318;48.644;9.456;2022-08-19T09:11:35;47.10;;;28.88;;
18383;SDS011;9318;48.644;9.456;2022-08-19T09:14:15;49.72;;;29.85;;
18383;SDS011;9318;48.644;9.456;2022-08-19T09:16:59;50.00;;;30.77;;
18383;SDS011;9318;48.644;9.456;2022-08-19T09:19:29;47.95;;;28.98;;
18383;SDS011;9318;48.644;9.456;2022-08-19T09:21:58;45.38;;;29.33;;
18383;SDS011;9318;48.644;9.456;2022-08-19T09:24:32;46.58;;;27.83;;
18383;SDS011;9318;48.644;9.456;2022-08-19T09:27:00;43.40;;;27.35;;
18383;SDS011;9318;48.644;9.456;2022-08-19T09:29:29;49.70;;;28.20;;
18383;SDS011;9318;48.644;9.456;2022-08-19T09:31:58;44.95;;;26.90;;
18383;SDS011;9318;48.644;9.456;2022-08-19T09:34:25;47.10;;;28.23;;
18383;SDS011;9318;48.644;9.456;2022-08-19T09:36:54;52.08;;;30.95;;
18383;SDS011;9318;48.644;9.456;2022-08-19T09:39:25;48.55;;;29.60;;
18383;SDS011;9318;48.644;9.456;2022-08-19T09:41:53;48.65;;;29.77;;
18383;SDS011;9318;48.644;9.456;2022-08-19T09:44:21;48.15;;;29.92;;
18383;SDS011;9318;48.644;9.456;2022-08-19T09:46:48;46.80;;;29.52;;
18383;SDS011;9318;48.644;9.456;2022-08-19T09:49:16;48.45;;;29.98;;
18383;SDS011;9318;48.644;9.456;2022-08-19T09:51:44;49.65;;;29.45;;
18383;SDS011;9318;48.644;9.456;2022-08-19T09:54:12;49.95;;;29.50;;
18383;SDS011;9318;48.644;9.456;2022-08-19T09:56:41;47.25;;;28.05;;
18383;SDS011;9318;48.644;9.456;2022-08-19T09:59:11;53.20;;;31.42;;
18383;SDS011;9318;48.644;9.456;2022-08-19T10:01:38;47.17;;;28.35;;
18383;SDS011;9318;48.644;9.456;2022-08-19T10:04:05;52.40;;;29.73;;
18383;SDS011;9318;48.644;9.456;2022-08-19T10:06:35;47.17;;;28.70;;
18383;SDS011;9318;48.644;9.456;2022-08-19T10:09:05;52.55;;;29.48;;
18383;SDS011;9318;48.644;9.456;2022-08-19T10:11:33;50.03;;;28.65;;
18383;SDS011;9318;48.644;9.456;2022-08-19T10:14:01;48.97;;;28.50;;
18383;SDS011;9318;48.644;9.456;2022-08-19T10:16:32;52.42;;;30.92;;
18383;SDS011;9318;48.644;9.456;2022-08-19T10:19:01;47.72;;;29.25;;
18383;SDS011;9318;48.644;9.456;2022-08-19T10:21:32;49.95;;;29.02;;
18383;SDS011;9318;48.644;9.456;2022-08-19T10:24:01;47.95;;;29.20;;
18383;SDS011;9318;48.644;9.456;2022-08-19T10:26:32;49.63;;;29.30;;
18383;SDS011;9318;48.644;9.456;2022-08-19T10:29:01;48.80;;;29.27;;
18383;SDS011;9318;48.644;9.456;2022-08-19T10:31:30;48.53;;;29.00;;
18383;SDS011;9318;48.644;9.456;2022-08-19T10:34:00;46.60;;;28.25;;
18383;SDS011;9318;48.644;9.456;2022-08-19T10:36:29;50.00;;;29.38;;
18383;SDS011;9318;48.644;9.456;2022-08-19T10:38:58;48.05;;;27.85;;
18383;SDS011;9318;48.644;9.456;2022-08-19T10:41:29;49.20;;;28.63;;
18383;SDS011;9318;48.644;9.456;2022-08-19T10:43:58;50.35;;;29.70;;
18383;SDS011;9318;48.644;9.456;2022-08-19T10:46:27;49.35;;;29.25;;
18383;SDS011;9318;48.644;9.456;2022-08-19T10:48:59;49.65;;;29.13;;
18383;SDS011;9318;48.644;9.456;2022-08-19T10:51:27;47.97;;;28.23;;
18383;SDS011;9318;48.644;9.456;2022-08-19T10:54:12;49.35;;;29.05;;
18383;SDS011;9318;48.644;9.456;2022-08-19T10:56:39;48.38;;;28.90;;
18383;SDS011;9318;48.644;9.456;2022-08-19T10:59:18;50.80;;;30.38;;
18383;SDS011;9318;48.644;9.456;2022-08-19T11:01:46;50.30;;;28.67;;
18383;SDS011;9318;48.644;9.456;2022-08-19T11:04:15;51.40;;;29.45;;
18383;SDS011;9318;48.644;9.456;2022-08-19T11:06:44;52.17;;;29.98;;
18383;SDS011;9318;48.644;9.456;2022-08-19T11:09:12;44.00;;;26.63;;
18383;SDS011;9318;48.644;9.456;2022-08-19T11:11:41;47.60;;;29.00;;
18383;SDS011;9318;48.644;9.456;2022-08-19T11:14:09;48.95;;;29.80;;
18383;SDS011;9318;48.644;9.456;2022-08-19T11:16:39;49.13;;;29.15;;
18383;SDS011;9318;48.644;9.456;2022-08-19T11:19:08;44.85;;;28.17;;
18383;SDS011;9318;48.644;9.456;2022-08-19T11:21:39;45.33;;;27.63;;
18383;SDS011;9318;48.644;9.456;2022-08-19T11:24:07;47.17;;;29.00;;
18383;SDS011;9318;48.644;9.456;2022-08-19T11:26:37;48.25;;;28.67;;
18383;SDS011;9318;48.644;9.456;2022-08-19T11:29:06;45.13;;;26.35;;
18383;SDS011;9318;48.644;9.456;2022-08-19T11:31:36;48.20;;;28.73;;
18383;SDS011;9318;48.644;9.456;2022-08-19T11:34:06;47.13;;;28.33;;
18383;SDS011;9318;48.644;9.456;2022-08-19T11:36:36;45.17;;;28.00;;
18383;SDS011;9318;48.644;9.456;2022-08-19T11:39:07;45.97;;;28.52;;
18383;SDS011;9318;48.644;9.456;2022-08-19T11:41:36;45.75;;;27.83;;
18383;SDS011;9318;48.644;9.456;2022-08-19T11:44:04;45.45;;;27.75;;
18383;SDS011;9318;48.644;9.456;2022-08-19T11:46:33;48.58;;;28.48;;
18383;SDS011;9318;48.644;9.456;2022-08-19T11:49:02;42.00;;;26.13;;
18383;SDS011;9318;48.644;9.456;2022-08-19T11:51:30;44.60;;;27.75;;
18383;SDS011;9318;48.644;9.456;2022-08-19T11:54:00;43.13;;;27.52;;
18383;SDS011;9318;48.644;9.456;2022-08-19T11:56:28;44.28;;;27.38;;
18383;SDS011;9318;48.644;9.456;2022-08-19T11:58:55;38.53;;;23.38;;
18383;SDS011;9318;48.644;9.456;2022-08-19T12:01:23;45.72;;;27.25;;
18383;SDS011;9318;48.644;9.456;2022-08-19T12:03:52;41.15;;;25.10;;
18383;SDS011;9318;48.644;9.456;2022-08-19T12:06:22;43.58;;;26.38;;
18383;SDS011;9318;48.644;9.456;2022-08-19T12:08:52;41.13;;;25.33;;
18383;SDS011;9318;48.644;9.456;2022-08-19T12:11:21;41.90;;;26.02;;
18383;SDS011;9318;48.644;9.456;2022-08-19T12:13:48;43.47;;;25.55;;
18383;SDS011;9318;48.644;9.456;2022-08-19T12:16:17;34.25;;;21.40;;
18383;SDS011;9318;48.644;9.456;2022-08-19T12:18:47;38.40;;;23.98;;
18383;SDS011;9318;48.644;9.456;2022-08-19T12:21:16;37.88;;;22.73;;
18383;SDS011;9318;48.644;9.456;2022-08-19T12:23:47;35.85;;;22.30;;
18383;SDS011;9318;48.644;9.456;2022-08-19T12:26:16;35.53;;;22.50;;
18383;SDS011;9318;48.644;9.456;2022-08-19T12:28:45;39.90;;;23.38;;
18383;SDS011;9318;48.644;9.456;2022-08-19T12:31:13;35.60;;;22.02;;
18383;SDS011;9318;48.644;9.456;2022-08-19T12:33:41;40.30;;;24.02;;
18383;SDS011;9318;48.644;9.456;2022-08-19T12:36:10;41.53;;;25.23;;
18383;SDS011;9318;48.644;9.456;2022-08-19T12:38:39;38.22;;;24.58;;
18383;SDS011;9318;48.644;9.456;2022-08-19T12:41:07;33.63;;;20.02;;
18383;SDS011;9318;48.644;9.456;2022-08-19T12:43:37;39.10;;;24.30;;
18383;SDS011;9318;48.644;9.456;2022-08-19T12:46:06;41.58;;;24.42;;
18383;SDS011;9318;48.644;9.456;2022-08-19T12:48:34;39.65;;;23.92;;
18383;SDS011;9318;48.644;9.456;2022-08-19T12:51:05;35.85;;;22.17;;
18383;SDS011;9318;48.644;9.456;2022-08-19T12:53:33;36.97;;;22.02;;
18383;SDS011;9318;48.644;9.456;2022-08-19T12:56:01;37.28;;;23.58;;
18383;SDS011;9318;48.644;9.456;2022-08-19T12:58:29;34.30;;;21.38;;
18383;SDS011;9318;48.644;9.456;2022-08-19T13:00:57;40.60;;;24.88;;
18383;SDS011;9318;48.644;9.456;2022-08-19T13:03:25;38.28;;;23.60;;
18383;SDS011;9318;48.644;9.456;2022-08-19T13:05:54;43.47;;;26.33;;
18383;SDS011;9318;48.644;9.456;2022-08-19T13:08:22;45.92;;;24.77;;
18383;SDS011;9318;48.644;9.456;2022-08-19T13:10:50;43.72;;;25.58;;
18383;SDS011;9318;48.644;9.456;2022-08-19T13:13:17;38.55;;;23.38;;
18383;SDS011;9318;48.644;9.456;2022-08-19T13:15:44;37.58;;;23.52;;
18383;SDS011;9318;48.644;9.456;2022-08-19T13:18:12;38.53;;;23.48;;
18383;SDS011;9318;48.644;9.456;2022-08-19T13:20:41;35.20;;;21.67;;
18383;SDS011;9318;48.644;9.456;2022-08-19T13:23:08;38.97;;;23.80;;
18383;SDS011;9318;48.644;9.456;2022-08-19T13:25:36;35.33;;;21.33;;
18383;SDS011;9318;48.644;9.456;2022-08-19T13:28:03;36.33;;;22.67;;
18383;SDS011;9318;48.644;9.456;2022-08-19T13:30:31;39.50;;;23.52;;
18383;SDS011;9318;48.644;9.456;2022-08-19T13:33:16;29.45;;;18.70;;
18383;SDS011;9318;48.644;9.456;2022-08-19T13:35:47;34.63;;;21.10;;
18383;SDS011;9318;48.644;9.456;2022-08-19T13:38:16;36.25;;;21.45;;
18383;SDS011;9318;48.644;9.456;2022-08-19T13:40:45;37.72;;;23.50;;
18383;SDS011;9318;48.644;9.456;2022-08-19T13:43:15;30.67;;;18.63;;
18383;SDS011;9318;48.644;9.456;2022-08-19T13:45:43;38.20;;;22.67;;
18383;SDS011;9318;48.644;9.456;2022-08-19T13:48:10;37.75;;;23.27;;
18383;SDS011;9318;48.644;9.456;2022-08-19T13:50:38;37.13;;;22.75;;
18383;SDS011;9318;48.644;9.456;2022-08-19T13:53:08;37.85;;;23.10;;
18383;SDS011;9318;48.644;9.456;2022-08-19T13:55:38;38.35;;;23.63;;
18383;SDS011;9318;48.644;9.456;2022-08-19T13:58:06;38.72;;;24.60;;
18383;SDS011;9318;48.644;9.456;2022-08-19T14:00:34;39.08;;;24.05;;
18383;SDS011;9318;48.644;9.456;2022-08-19T14:03:03;33.88;;;19.60;;
18383;SDS011;9318;48.644;9.456;2022-08-19T14:05:31;41.38;;;25.42;;
18383;SDS011;9318;48.644;9.456;2022-08-19T14:07:59;38.80;;;23.70;;
18383;SDS011;9318;48.644;9.456;2022-08-19T14:10:28;35.45;;;22.00;;
18383;SDS011;9318;48.644;9.456;2022-08-19T14:12:57;34.83;;;21.65;;
18383;SDS011;9318;48.644;9.456;2022-08-19T14:15:27;38.08;;;22.77;;
18383;SDS011;9318;48.644;9.456;2022-08-19T14:17:55;36.58;;;22.48;;
18383;SDS011;9318;48.644;9.456;2022-08-19T14:20:23;37.17;;;23.10;;
18383;SDS011;9318;48.644;9.456;2022-08-19T14:22:51;36.60;;;23.05;;
18383;SDS011;9318;48.644;9.456;2022-08-19T14:25:19;37.72;;;23.88;;
18383;SDS011;9318;48.644;9.456;2022-08-19T14:27:50;33.38;;;20.80;;
18383;SDS011;9318;48.644;9.456;2022-08-19T14:30:19;33.95;;;19.83;;
18383;SDS011;9318;48.644;9.456;2022-08-19T14:32:50;36.20;;;22.20;;
18383;SDS011;9318;48.644;9.456;2022-08-19T14:35:17;30.05;;;18.23;;
18383;SDS011;9318;48.644;9.456;2022-08-19T14:37:46;32.15;;;19.70;;
18383;SDS011;9318;48.644;9.456;2022-08-19T14:40:14;32.08;;;19.67;;
18383;SDS011;9318;48.644;9.456;2022-08-19T14:42:45;28.88;;;17.58;;
18383;SDS011;9318;48.644;9.456;2022-08-19T14:45:15;31.00;;;19.48;;